createdAt,value
2023-02-02T00:00:55.191Z,25.13
2023-02-02T00:03:22.071Z,18.60
2023-02-02T00:05:52.143Z,21.23
2023-02-02T00:08:20.775Z,28.23
2023-02-02T00:10:47.855Z,22.73
2023-02-02T00:13:14.624Z,15.52
2023-02-02T00:15:41.391Z,21.75
2023-02-02T00:18:08.023Z,30.75
2023-02-02T00:20:34.695Z,22.08
2023-02-02T00:23:01.898Z,23.23
2023-02-02T00:25:28.747Z,14.82
2023-02-02T00:27:55.452Z,20.40
2023-02-02T00:30:22.323Z,13.55
2023-02-02T00:32:50.587Z,18.05
2023-02-02T00:35:17.233Z,17.90
2023-02-02T00:37:43.825Z,23.70
2023-02-02T00:40:11.308Z,14.80
2023-02-02T00:42:37.914Z,17.85
2023-02-02T00:45:17.722Z,17.08
2023-02-02T00:47:48.190Z,28.92
2023-02-02T00:50:19.184Z,32.55
2023-02-02T00:52:46.752Z,16.80
2023-02-02T00:55:14.526Z,25.35
2023-02-02T00:57:41.502Z,22.42
2023-02-02T01:00:12.000Z,15.32
2023-02-02T01:02:38.689Z,19.13
2023-02-02T01:05:06.543Z,17.13
2023-02-02T01:07:33.174Z,18.10
2023-02-02T01:09:59.968Z,22.55
2023-02-02T01:12:26.581Z,21.40
2023-02-02T01:14:53.327Z,13.73
2023-02-02T01:17:21.286Z,22.05
2023-02-02T01:19:47.966Z,15.68
2023-02-02T01:22:14.619Z,15.63
2023-02-02T01:24:41.221Z,17.20
2023-02-02T01:27:07.807Z,21.88
2023-02-02T01:29:34.470Z,21.13
2023-02-02T01:32:01.218Z,17.50
2023-02-02T01:34:27.883Z,10.82
2023-02-02T01:36:54.480Z,15.70
2023-02-02T01:39:21.082Z,11.45
2023-02-02T01:41:48.075Z,31.23
2023-02-02T01:44:52.643Z,18.00
2023-02-02T01:47:26.960Z,11.93
2023-02-02T01:49:55.176Z,21.35
2023-02-02T01:52:24.170Z,29.60
2023-02-02T01:55:09.874Z,29.52
2023-02-02T01:57:59.267Z,17.58
2023-02-02T02:00:27.640Z,12.85
2023-02-02T02:03:01.016Z,17.95
2023-02-02T02:05:35.377Z,22.40
2023-02-02T02:08:15.157Z,17.98
2023-02-02T02:10:41.966Z,16.15
2023-02-02T02:13:08.872Z,13.02
2023-02-02T02:16:12.563Z,24.25
2023-02-02T02:19:09.607Z,15.90
2023-02-02T02:22:04.011Z,25.70
2023-02-02T02:25:01.477Z,18.00
2023-02-02T02:28:01.003Z,18.30
2023-02-02T02:30:45.350Z,19.88
2023-02-02T02:33:33.683Z,18.20
2023-02-02T02:36:17.576Z,22.95
2023-02-02T02:39:13.774Z,20.70
2023-02-02T02:41:48.983Z,15.57
2023-02-02T02:44:19.496Z,14.32
2023-02-02T02:46:47.954Z,14.48
2023-02-02T02:49:14.711Z,13.60
2023-02-02T02:51:47.237Z,19.27
2023-02-02T02:54:27.036Z,13.75
2023-02-02T02:57:15.956Z,7.18
2023-02-02T03:00:01.195Z,15.68
2023-02-02T03:02:35.602Z,11.02
2023-02-02T03:05:07.538Z,15.07
2023-02-02T03:07:34.236Z,17.02
2023-02-02T03:10:02.381Z,10.13
2023-02-02T03:12:29.081Z,17.60
2023-02-02T03:14:55.690Z,9.90
2023-02-02T03:17:22.839Z,12.63
2023-02-02T03:19:49.511Z,15.15
2023-02-02T03:22:16.207Z,15.93
2023-02-02T03:24:42.878Z,18.60
2023-02-02T03:27:09.547Z,25.20
2023-02-02T03:29:36.987Z,14.80
2023-02-02T03:32:05.828Z,19.17
2023-02-02T03:34:32.455Z,21.33
2023-02-02T03:36:59.173Z,15.60
2023-02-02T03:39:25.771Z,13.38
2023-02-02T03:41:52.431Z,15.05
2023-02-02T03:44:19.054Z,25.95
2023-02-02T03:46:45.999Z,18.95
2023-02-02T03:49:12.708Z,25.45
2023-02-02T03:51:39.382Z,25.73
2023-02-02T03:54:06.095Z,16.23
2023-02-02T03:56:32.816Z,22.60
2023-02-02T03:58:59.467Z,22.95
2023-02-02T04:01:30.394Z,26.08
2023-02-02T04:03:58.388Z,26.17
2023-02-02T04:06:25.893Z,22.65
2023-02-02T04:08:52.811Z,28.67
2023-02-02T04:11:20.026Z,28.90
2023-02-02T04:13:46.891Z,24.67
2023-02-02T04:16:13.824Z,23.60
2023-02-02T04:18:40.608Z,31.67
2023-02-02T04:21:08.479Z,29.45
2023-02-02T04:23:35.162Z,22.42
2023-02-02T04:26:01.815Z,22.63
2023-02-02T04:28:28.784Z,32.40
2023-02-02T04:30:55.954Z,22.77
2023-02-02T04:33:23.953Z,27.67
2023-02-02T04:35:50.682Z,37.63
2023-02-02T04:38:17.344Z,270.23
2023-02-02T04:40:45.977Z,27.38
2023-02-02T04:43:15.993Z,28.30
2023-02-02T04:45:42.860Z,24.70
2023-02-02T04:48:09.743Z,26.95
2023-02-02T04:50:36.417Z,29.70
2023-02-02T04:53:03.713Z,24.85
2023-02-02T04:55:30.459Z,41.63
2023-02-02T04:57:57.068Z,41.05
2023-02-02T05:00:23.805Z,41.35
2023-02-02T05:02:50.483Z,42.10
2023-02-02T05:05:17.144Z,28.42
2023-02-02T05:07:43.774Z,26.17
2023-02-02T05:10:11.236Z,39.80
2023-02-02T05:12:37.880Z,24.15
2023-02-02T05:15:05.489Z,25.10
2023-02-02T05:17:32.408Z,33.17
2023-02-02T05:19:59.022Z,33.55
2023-02-02T05:22:25.804Z,26.95
2023-02-02T05:24:52.510Z,24.88
2023-02-02T05:27:19.117Z,28.52
2023-02-02T05:29:47.413Z,32.10
2023-02-02T05:32:14.669Z,26.65
2023-02-02T05:34:41.295Z,26.85
2023-02-02T05:37:07.921Z,18.77
2023-02-02T05:39:34.650Z,23.55
2023-02-02T05:42:01.363Z,27.92
2023-02-02T05:44:28.072Z,21.08
2023-02-02T05:46:54.914Z,23.63
2023-02-02T05:49:21.546Z,21.98
2023-02-02T05:51:51.805Z,26.15
2023-02-02T05:54:20.435Z,25.08
2023-02-02T05:56:48.419Z,22.80
2023-02-02T05:59:15.331Z,24.08
2023-02-02T06:01:46.335Z,17.67
2023-02-02T06:04:13.875Z,19.10
2023-02-02T06:06:41.359Z,17.35
2023-02-02T06:09:08.689Z,21.48
2023-02-02T06:11:35.422Z,15.90
2023-02-02T06:14:02.147Z,26.83
2023-02-02T06:16:28.745Z,21.23
2023-02-02T06:18:55.544Z,21.10
2023-02-02T06:21:24.366Z,17.92
2023-02-02T06:23:51.935Z,23.52
2023-02-02T06:26:19.540Z,22.80
2023-02-02T06:28:51.426Z,25.17
2023-02-02T06:31:19.409Z,20.88
2023-02-02T06:33:47.612Z,12.35
2023-02-02T06:36:14.576Z,19.33
2023-02-02T06:38:41.360Z,21.73
2023-02-02T06:41:08.024Z,23.75
2023-02-02T06:43:34.739Z,16.80
2023-02-02T06:46:01.468Z,12.90
2023-02-02T06:48:28.368Z,21.40
2023-02-02T06:50:58.896Z,23.15
2023-02-02T06:53:26.564Z,15.90
2023-02-02T06:56:01.433Z,21.80
2023-02-02T06:58:29.715Z,21.20
2023-02-02T07:01:08.435Z,14.55
2023-02-02T07:03:35.703Z,34.95
2023-02-02T07:06:16.539Z,17.77
2023-02-02T07:08:43.479Z,16.67
2023-02-02T07:11:15.319Z,17.80
2023-02-02T07:13:44.577Z,16.05
2023-02-02T07:16:12.965Z,13.80
2023-02-02T07:18:40.479Z,12.88
2023-02-02T07:21:07.224Z,14.45
2023-02-02T07:23:34.445Z,9.45
2023-02-02T07:26:09.679Z,19.38
2023-02-02T07:28:36.583Z,8.20
2023-02-02T07:31:35.824Z,14.80
2023-02-02T07:34:03.351Z,13.73
2023-02-02T07:36:30.032Z,18.48
2023-02-02T07:39:01.889Z,11.68
2023-02-02T07:41:28.542Z,15.10
2023-02-02T07:43:55.192Z,12.90
2023-02-02T07:46:22.393Z,11.82
2023-02-02T07:48:49.176Z,11.65
2023-02-02T07:51:17.797Z,9.98
2023-02-02T07:53:46.293Z,14.80
2023-02-02T07:56:15.476Z,18.23
2023-02-02T07:58:43.196Z,9.40
2023-02-02T08:01:11.829Z,10.48
2023-02-02T08:03:39.576Z,15.88
2023-02-02T08:06:33.560Z,7.55
2023-02-02T08:09:01.792Z,11.73
2023-02-02T08:11:29.032Z,9.05
2023-02-02T08:13:58.997Z,6.35
2023-02-02T08:16:30.605Z,10.13
2023-02-02T08:18:58.578Z,13.35
2023-02-02T08:21:25.532Z,18.10
2023-02-02T08:23:53.570Z,6.80
2023-02-02T08:26:28.243Z,8.50
2023-02-02T08:29:06.656Z,9.20
2023-02-02T08:31:41.668Z,10.90
2023-02-02T08:34:08.847Z,10.85
2023-02-02T08:36:35.588Z,9.23
2023-02-02T08:39:05.003Z,10.63
2023-02-02T08:41:32.374Z,16.13
2023-02-02T08:43:59.168Z,13.50
2023-02-02T08:46:26.181Z,13.82
2023-02-02T08:48:52.947Z,10.00
2023-02-02T08:51:20.070Z,6.90
2023-02-02T08:53:46.898Z,11.27
2023-02-02T08:56:16.501Z,9.60
2023-02-02T08:58:52.398Z,15.25
2023-02-02T09:01:22.105Z,12.10
2023-02-02T09:03:48.986Z,13.38
2023-02-02T09:06:17.898Z,13.55
2023-02-02T09:08:45.717Z,9.90
2023-02-02T09:11:17.508Z,9.63
2023-02-02T09:13:45.993Z,17.40
2023-02-02T09:16:14.536Z,14.13
2023-02-02T09:18:42.060Z,13.98
2023-02-02T09:21:11.863Z,16.08
2023-02-02T09:23:40.783Z,19.73
2023-02-02T09:26:15.374Z,26.35
2023-02-02T09:28:45.069Z,29.05
2023-02-02T09:31:12.002Z,35.05
2023-02-02T09:33:39.355Z,23.77
2023-02-02T09:36:14.325Z,25.88
2023-02-02T09:38:41.979Z,27.17
2023-02-02T09:41:29.930Z,28.85
2023-02-02T09:44:18.905Z,22.33
2023-02-02T09:46:51.258Z,22.40
2023-02-02T09:49:25.574Z,21.17
2023-02-02T09:52:01.852Z,20.15
2023-02-02T09:54:44.673Z,19.85
2023-02-02T09:57:20.812Z,15.40
2023-02-02T09:59:50.690Z,25.00
2023-02-02T10:02:23.839Z,21.55
2023-02-02T10:04:55.961Z,26.73
2023-02-02T10:07:35.206Z,16.85
2023-02-02T10:10:11.538Z,23.52
2023-02-02T10:12:52.798Z,14.95
2023-02-02T10:15:40.983Z,22.75
2023-02-02T10:18:10.742Z,19.75
2023-02-02T10:21:00.560Z,17.98
2023-02-02T10:23:41.451Z,19.30
2023-02-02T10:26:28.983Z,17.20
2023-02-02T10:29:48.533Z,23.60
2023-02-02T10:32:26.643Z,21.98
2023-02-02T10:35:11.090Z,33.00
2023-02-02T10:38:21.556Z,35.97
2023-02-02T10:41:30.287Z,32.97
2023-02-02T10:44:29.022Z,31.65
2023-02-02T10:47:00.298Z,25.70
2023-02-02T10:49:36.553Z,31.80
2023-02-02T10:52:19.679Z,50.97
2023-02-02T10:55:11.521Z,34.13
2023-02-02T10:57:56.896Z,37.88
2023-02-02T11:00:23.938Z,43.22
2023-02-02T11:02:52.945Z,41.55
2023-02-02T11:05:49.192Z,38.50
2023-02-02T11:08:31.327Z,57.70
2023-02-02T11:11:01.188Z,30.13
2023-02-02T11:13:36.874Z,32.33
2023-02-02T11:16:15.824Z,30.98
2023-02-02T11:18:44.321Z,33.92
2023-02-02T11:21:32.446Z,43.40
2023-02-02T11:24:02.276Z,34.92
2023-02-02T11:27:13.217Z,28.70
2023-02-02T11:29:39.864Z,25.35
2023-02-02T11:32:32.692Z,37.67
2023-02-02T11:35:02.524Z,39.92
2023-02-02T11:37:30.329Z,35.95
2023-02-02T11:40:24.500Z,25.83
2023-02-02T11:42:52.730Z,28.85
2023-02-02T11:45:43.209Z,29.73
2023-02-02T11:48:17.537Z,24.15
2023-02-02T11:50:57.035Z,27.35
2023-02-02T11:53:47.830Z,27.27
2023-02-02T11:56:25.317Z,28.08
2023-02-02T11:58:59.576Z,29.52
2023-02-02T12:01:31.405Z,27.70
2023-02-02T12:04:01.562Z,32.05
2023-02-02T12:06:38.296Z,27.63
2023-02-02T12:09:23.945Z,29.15
2023-02-02T12:12:15.004Z,35.47
2023-02-02T12:14:51.089Z,36.65
2023-02-02T12:17:35.159Z,30.50
2023-02-02T12:20:21.579Z,40.83
2023-02-02T12:23:15.672Z,32.05
2023-02-02T12:26:14.764Z,38.17
2023-02-02T12:29:07.756Z,39.22
2023-02-02T12:32:08.200Z,40.65
2023-02-02T12:34:40.853Z,42.15
2023-02-02T12:37:52.734Z,35.10
2023-02-02T12:40:29.997Z,29.65
2023-02-02T12:43:00.409Z,30.40
2023-02-02T12:45:36.777Z,27.55
2023-02-02T12:48:30.159Z,27.50
2023-02-02T12:51:31.163Z,36.00
2023-02-02T12:54:34.903Z,30.55
2023-02-02T12:57:03.143Z,28.70
2023-02-02T13:00:13.896Z,32.55
2023-02-02T13:03:33.092Z,31.55
2023-02-02T13:06:16.404Z,29.02
2023-02-02T13:08:52.724Z,29.10
2023-02-02T13:11:49.899Z,40.90
2023-02-02T13:14:26.097Z,34.00
2023-02-02T13:17:01.237Z,27.30
2023-02-02T13:19:39.658Z,20.45
2023-02-02T13:22:10.632Z,26.50
2023-02-02T13:24:40.332Z,23.30
2023-02-02T13:27:12.742Z,30.73
2023-02-02T13:29:48.713Z,33.50
2023-02-02T13:32:31.916Z,38.47
2023-02-02T13:35:19.949Z,33.42
2023-02-02T13:37:54.417Z,40.60
2023-02-02T13:40:32.451Z,51.63
2023-02-02T13:43:05.571Z,43.53
2023-02-02T13:46:00.918Z,52.17
2023-02-02T13:48:48.967Z,33.88
2023-02-02T13:51:18.641Z,33.83
2023-02-02T13:54:08.588Z,35.92
2023-02-02T13:56:51.273Z,40.33
2023-02-02T13:59:41.768Z,30.65
2023-02-02T14:02:30.897Z,27.77
2023-02-02T14:05:00.620Z,60.92
2023-02-02T14:07:43.255Z,48.13
2023-02-02T14:10:26.568Z,126.47
2023-02-02T14:12:55.169Z,66.10
2023-02-02T14:15:43.206Z,118.20
2023-02-02T14:18:09.898Z,68.45
2023-02-02T14:20:46.332Z,39.25
2023-02-02T14:23:51.216Z,78.88
2023-02-02T14:26:39.200Z,394.02
2023-02-02T14:29:37.341Z,74.97
2023-02-02T14:32:07.201Z,136.90
2023-02-02T14:34:36.392Z,105.25
2023-02-02T14:37:24.471Z,146.05
2023-02-02T14:39:56.946Z,84.57
2023-02-02T14:43:09.226Z,54.25
2023-02-02T14:45:42.322Z,51.05
2023-02-02T14:48:21.282Z,80.32
2023-02-02T14:50:58.119Z,66.00
2023-02-02T14:53:31.615Z,52.35
2023-02-02T14:56:14.849Z,51.80
2023-02-02T14:58:47.253Z,30.73
2023-02-02T15:01:17.189Z,37.13
2023-02-02T15:03:45.337Z,40.55
2023-02-02T15:06:34.731Z,37.17
2023-02-02T15:09:20.307Z,35.17
2023-02-02T15:12:01.250Z,36.95
2023-02-02T15:14:53.375Z,37.47
2023-02-02T15:17:38.685Z,38.58
2023-02-02T15:20:21.112Z,37.38
2023-02-02T15:22:47.992Z,41.53
2023-02-02T15:25:41.263Z,41.28
2023-02-02T15:28:17.482Z,52.13
2023-02-02T15:30:47.227Z,47.63
2023-02-02T15:33:39.884Z,42.83
2023-02-02T15:36:13.471Z,58.42
2023-02-02T15:38:42.958Z,57.97
2023-02-02T15:41:20.753Z,56.20
2023-02-02T15:43:47.699Z,73.03
2023-02-02T15:46:24.141Z,74.10
2023-02-02T15:49:33.897Z,99.57
2023-02-02T15:52:12.626Z,84.97
2023-02-02T15:54:53.042Z,81.72
2023-02-02T15:57:33.289Z,84.80
2023-02-02T16:00:01.785Z,80.32
2023-02-02T16:02:42.470Z,44.35
2023-02-02T16:05:36.866Z,50.80
2023-02-02T16:08:20.983Z,51.25
2023-02-02T16:10:50.538Z,43.13
2023-02-02T16:13:23.662Z,42.58
2023-02-02T16:16:02.319Z,48.72
2023-02-02T16:18:30.372Z,65.25
2023-02-02T16:21:01.050Z,51.65
2023-02-02T16:23:35.948Z,142.80
2023-02-02T16:28:32.041Z,88.20
2023-02-02T16:31:03.201Z,93.28
2023-02-02T16:33:37.133Z,94.43
2023-02-02T16:36:26.212Z,77.55
2023-02-02T16:38:54.084Z,101.22
2023-02-02T16:41:36.508Z,128.68
2023-02-02T16:44:36.055Z,87.53
2023-02-02T16:47:04.512Z,89.85
2023-02-02T16:49:31.338Z,67.03
2023-02-02T16:52:09.270Z,80.32
2023-02-02T16:54:36.532Z,95.72
2023-02-02T16:57:05.031Z,84.03
2023-02-02T16:59:33.784Z,74.82
2023-02-02T17:02:04.781Z,71.35
2023-02-02T17:04:33.999Z,57.00
2023-02-02T17:07:13.060Z,66.60
2023-02-02T17:09:42.279Z,64.00
2023-02-02T17:12:30.777Z,60.90
2023-02-02T17:15:19.615Z,64.75
2023-02-02T17:17:49.326Z,177.82
2023-02-02T17:20:17.644Z,94.95
2023-02-02T17:22:50.666Z,113.47
2023-02-02T17:25:40.478Z,90.63
2023-02-02T17:28:11.730Z,99.38
2023-02-02T17:30:47.143Z,78.03
2023-02-02T17:33:16.094Z,70.95
2023-02-02T17:35:54.125Z,74.15
2023-02-02T17:38:23.381Z,96.68
2023-02-02T17:40:50.603Z,105.68
2023-02-02T17:43:17.268Z,102.05
2023-02-02T17:45:44.099Z,64.03
2023-02-02T17:48:12.478Z,110.00
2023-02-02T17:50:40.873Z,172.00
2023-02-02T17:53:18.295Z,90.22
2023-02-02T17:55:46.813Z,64.13
2023-02-02T17:58:16.982Z,68.93
2023-02-02T18:00:49.519Z,88.72
2023-02-02T18:03:23.981Z,77.97
2023-02-02T18:05:51.039Z,69.75
2023-02-02T18:08:18.069Z,79.57
2023-02-02T18:10:44.832Z,95.53
2023-02-02T18:13:15.772Z,72.22
2023-02-02T18:15:43.334Z,101.53
2023-02-02T18:18:12.223Z,86.70
2023-02-02T18:20:49.985Z,92.68
2023-02-02T18:23:18.517Z,83.15
2023-02-02T18:25:45.290Z,78.05
2023-02-02T18:28:15.176Z,96.15
2023-02-02T18:30:43.192Z,186.60
2023-02-02T18:33:11.068Z,118.38
2023-02-02T18:35:45.802Z,101.93
2023-02-02T18:38:13.027Z,133.20
2023-02-02T18:40:40.221Z,124.95
2023-02-02T18:43:07.038Z,139.55
2023-02-02T18:45:33.738Z,255.63
2023-02-02T18:48:00.341Z,315.77
2023-02-02T18:50:27.242Z,502.23
2023-02-02T18:52:54.271Z,517.85
2023-02-02T18:55:21.055Z,683.63
2023-02-02T18:57:47.694Z,663.88
2023-02-02T19:00:15.146Z,655.95
2023-02-02T19:02:42.022Z,691.58
2023-02-02T19:05:30.546Z,407.73
2023-02-02T19:07:57.990Z,386.65
2023-02-02T19:10:27.046Z,445.50
2023-02-02T19:13:05.811Z,295.50
2023-02-02T19:15:39.165Z,255.68
2023-02-02T19:18:14.112Z,350.67
2023-02-02T19:20:41.748Z,222.55
2023-02-02T19:23:17.371Z,265.40
2023-02-02T19:25:49.512Z,245.23
2023-02-02T19:28:26.263Z,213.55
2023-02-02T19:30:54.867Z,215.77
2023-02-02T19:33:21.616Z,174.20
2023-02-02T19:35:52.772Z,204.38
2023-02-02T19:38:20.493Z,131.07
2023-02-02T19:40:47.897Z,119.88
2023-02-02T19:43:26.151Z,145.07
2023-02-02T19:45:54.053Z,136.98
2023-02-02T19:48:26.130Z,158.85
2023-02-02T19:50:54.591Z,195.95
2023-02-02T19:53:29.554Z,193.88
2023-02-02T19:58:26.256Z,99.28
2023-02-02T20:00:55.641Z,136.20
2023-02-02T20:03:43.044Z,148.15
2023-02-02T20:06:23.867Z,105.78
2023-02-02T20:08:50.789Z,115.60
2023-02-02T20:11:23.788Z,120.68
2023-02-02T20:13:51.634Z,156.23
2023-02-02T20:16:24.359Z,155.38
2023-02-02T20:18:53.787Z,115.65
2023-02-02T20:21:34.175Z,126.78
2023-02-02T20:24:00.951Z,130.65
2023-02-02T20:26:34.309Z,145.05
2023-02-02T20:29:15.758Z,120.25
2023-02-02T20:31:42.380Z,107.68
2023-02-02T20:34:40.666Z,112.68
2023-02-02T20:37:13.504Z,112.20
2023-02-02T20:39:50.264Z,123.03
2023-02-02T20:42:17.115Z,108.88
2023-02-02T20:44:44.315Z,144.52
2023-02-02T20:47:12.276Z,140.52
2023-02-02T20:49:39.240Z,100.95
2023-02-02T20:52:10.585Z,112.82
2023-02-02T20:54:38.416Z,138.27
2023-02-02T20:57:05.663Z,134.93
2023-02-02T20:59:32.885Z,170.48
2023-02-02T21:02:01.035Z,204.85
2023-02-02T21:04:28.020Z,212.32
2023-02-02T21:06:55.350Z,245.15
2023-02-02T21:09:22.484Z,381.38
2023-02-02T21:11:49.123Z,337.30
2023-02-02T21:14:15.982Z,256.77
2023-02-02T21:16:42.749Z,660.53
2023-02-02T21:19:09.454Z,836.35
2023-02-02T21:21:36.392Z,696.25
2023-02-02T21:24:04.066Z,880.92
2023-02-02T21:26:31.079Z,1047.35
2023-02-02T21:28:58.389Z,818.83
2023-02-02T21:31:25.843Z,1007.85
2023-02-02T21:33:53.136Z,1008.45
2023-02-02T21:36:37.951Z,386.65
2023-02-02T21:39:24.708Z,307.20
2023-02-02T21:41:58.518Z,346.60
2023-02-02T21:44:26.797Z,285.83
2023-02-02T21:46:53.475Z,278.60
2023-02-02T21:49:23.809Z,340.20
2023-02-02T21:51:51.755Z,305.08
2023-02-02T21:54:27.601Z,293.05
2023-02-02T21:56:55.024Z,244.27
2023-02-02T21:59:23.744Z,282.98
2023-02-02T22:01:51.832Z,247.68
2023-02-02T22:04:19.904Z,267.95
2023-02-02T22:07:14.972Z,308.38
2023-02-02T22:09:43.645Z,231.90
2023-02-02T22:12:28.348Z,208.65
2023-02-02T22:15:00.182Z,243.00
2023-02-02T22:17:39.923Z,230.80
2023-02-02T22:20:15.872Z,225.82
2023-02-02T22:22:46.275Z,211.27
2023-02-02T22:25:20.810Z,226.82
2023-02-02T22:27:53.751Z,226.18
2023-02-02T22:30:26.512Z,247.95
2023-02-02T22:32:54.274Z,216.82
2023-02-02T22:35:21.259Z,225.15
2023-02-02T22:37:47.889Z,217.80
2023-02-02T22:40:16.264Z,215.40
2023-02-02T22:42:43.322Z,239.30
2023-02-02T22:45:10.445Z,245.05
2023-02-02T22:47:37.287Z,234.20
2023-02-02T22:50:04.174Z,267.88
2023-02-02T22:52:30.801Z,243.55
2023-02-02T22:54:57.412Z,239.43
2023-02-02T22:57:23.994Z,289.25
2023-02-02T22:59:50.791Z,268.70
2023-02-02T23:02:17.545Z,267.73
2023-02-02T23:04:44.246Z,251.10
2023-02-02T23:07:10.844Z,272.98
2023-02-02T23:09:37.505Z,251.07
2023-02-02T23:12:04.332Z,246.88
2023-02-02T23:14:30.945Z,265.83
2023-02-02T23:16:57.707Z,278.17
2023-02-02T23:19:24.375Z,275.38
2023-02-02T23:21:51.083Z,239.02
2023-02-02T23:24:17.655Z,247.55
2023-02-02T23:26:44.231Z,253.50
2023-02-02T23:29:10.947Z,261.65
2023-02-02T23:31:37.570Z,239.43
2023-02-02T23:34:04.161Z,271.63
2023-02-02T23:36:30.809Z,259.25
2023-02-02T23:38:57.436Z,271.17
2023-02-02T23:41:24.135Z,287.90
2023-02-02T23:43:50.737Z,258.63
2023-02-02T23:46:17.876Z,245.32
2023-02-02T23:48:44.897Z,262.45
2023-02-02T23:51:12.186Z,273.45
2023-02-02T23:53:38.999Z,243.07
2023-02-02T23:56:05.844Z,226.27
2023-02-02T23:58:32.438Z,225.48
